sensor_id;sensor_type;location;lat;lon;timestamp;temperature;humidity
975;DHT22;6115;49.296;10.602;2024-02-16T00:01:19;6.60;81.40
975;DHT22;6115;49.296;10.602;2024-02-16T00:06:20;6.40;81.20
975;DHT22;6115;49.296;10.602;2024-02-16T00:11:20;6.40;81.20
975;DHT22;6115;49.296;10.602;2024-02-16T00:16:22;6.40;81.20
975;DHT22;6115;49.296;10.602;2024-02-16T00:21:22;6.40;81.20
975;DHT22;6115;49.296;10.602;2024-02-16T00:26:23;6.80;83.10
975;DHT22;6115;49.296;10.602;2024-02-16T00:31:23;6.90;83.00
975;DHT22;6115;49.296;10.602;2024-02-16T00:36:26;6.80;82.40
975;DHT22;6115;49.296;10.602;2024-02-16T00:41:26;6.80;82.00
975;DHT22;6115;49.296;10.602;2024-02-16T00:46:27;6.90;82.40
975;DHT22;6115;49.296;10.602;2024-02-16T00:51:27;7.10;83.00
975;DHT22;6115;49.296;10.602;2024-02-16T00:56:30;7.20;83.00
975;DHT22;6115;49.296;10.602;2024-02-16T01:01:31;7.10;82.50
975;DHT22;6115;49.296;10.602;2024-02-16T01:06:31;7.10;82.00
975;DHT22;6115;49.296;10.602;2024-02-16T01:11:32;7.10;81.80
975;DHT22;6115;49.296;10.602;2024-02-16T01:16:33;7.10;81.80
975;DHT22;6115;49.296;10.602;2024-02-16T01:21:33;7.10;81.50
975;DHT22;6115;49.296;10.602;2024-02-16T01:26:34;7.10;80.80
975;DHT22;6115;49.296;10.602;2024-02-16T01:31:34;7.10;80.60
975;DHT22;6115;49.296;10.602;2024-02-16T01:36:37;7.10;80.40
975;DHT22;6115;49.296;10.602;2024-02-16T01:41:40;7.20;80.20
975;DHT22;6115;49.296;10.602;2024-02-16T01:46:41;7.20;79.90
975;DHT22;6115;49.296;10.602;2024-02-16T01:51:42;7.20;79.80
975;DHT22;6115;49.296;10.602;2024-02-16T01:56:45;7.30;79.50
975;DHT22;6115;49.296;10.602;2024-02-16T02:01:46;7.30;79.40
975;DHT22;6115;49.296;10.602;2024-02-16T02:06:47;7.30;79.30
975;DHT22;6115;49.296;10.602;2024-02-16T02:11:48;7.20;79.20
975;DHT22;6115;49.296;10.602;2024-02-16T02:16:49;7.10;79.60
975;DHT22;6115;49.296;10.602;2024-02-16T02:21:49;7.00;80.70
975;DHT22;6115;49.296;10.602;2024-02-16T02:26:50;7.00;79.90
975;DHT22;6115;49.296;10.602;2024-02-16T02:31:51;6.90;79.60
975;DHT22;6115;49.296;10.602;2024-02-16T02:36:51;7.00;79.50
975;DHT22;6115;49.296;10.602;2024-02-16T02:41:52;7.00;79.20
975;DHT22;6115;49.296;10.602;2024-02-16T02:46:52;7.00;79.10
975;DHT22;6115;49.296;10.602;2024-02-16T02:51:53;7.00;79.10
975;DHT22;6115;49.296;10.602;2024-02-16T02:56:53;6.80;79.10
975;DHT22;6115;49.296;10.602;2024-02-16T03:01:54;6.70;80.00
975;DHT22;6115;49.296;10.602;2024-02-16T03:06:54;6.80;80.30
975;DHT22;6115;49.296;10.602;2024-02-16T03:11:55;6.80;80.10
975;DHT22;6115;49.296;10.602;2024-02-16T03:16:55;6.90;80.10
975;DHT22;6115;49.296;10.602;2024-02-16T03:21:56;7.00;80.30
975;DHT22;6115;49.296;10.602;2024-02-16T03:26:56;7.00;80.00
975;DHT22;6115;49.296;10.602;2024-02-16T03:31:57;7.00;79.60
975;DHT22;6115;49.296;10.602;2024-02-16T03:36:58;6.80;79.40
975;DHT22;6115;49.296;10.602;2024-02-16T03:41:59;6.80;79.40
975;DHT22;6115;49.296;10.602;2024-02-16T03:47:00;6.70;79.30
975;DHT22;6115;49.296;10.602;2024-02-16T03:52:00;6.60;79.40
975;DHT22;6115;49.296;10.602;2024-02-16T03:57:01;6.50;80.00
975;DHT22;6115;49.296;10.602;2024-02-16T04:02:01;6.50;80.10
975;DHT22;6115;49.296;10.602;2024-02-16T04:07:04;6.50;79.90
975;DHT22;6115;49.296;10.602;2024-02-16T04:12:04;6.50;79.50
975;DHT22;6115;49.296;10.602;2024-02-16T04:17:05;6.40;79.20
975;DHT22;6115;49.296;10.602;2024-02-16T04:22:06;6.40;79.30
975;DHT22;6115;49.296;10.602;2024-02-16T04:27:06;6.40;79.70
975;DHT22;6115;49.296;10.602;2024-02-16T04:32:07;6.40;79.80
975;DHT22;6115;49.296;10.602;2024-02-16T04:37:08;6.30;80.50
975;DHT22;6115;49.296;10.602;2024-02-16T04:42:09;6.30;80.80
975;DHT22;6115;49.296;10.602;2024-02-16T04:47:09;6.30;81.10
975;DHT22;6115;49.296;10.602;2024-02-16T04:52:10;6.30;81.10
975;DHT22;6115;49.296;10.602;2024-02-16T04:57:11;6.40;81.10
975;DHT22;6115;49.296;10.602;2024-02-16T05:02:11;6.30;81.10
975;DHT22;6115;49.296;10.602;2024-02-16T05:07:12;6.30;81.10
975;DHT22;6115;49.296;10.602;2024-02-16T05:12:12;6.40;81.20
975;DHT22;6115;49.296;10.602;2024-02-16T05:17:13;6.40;81.20
975;DHT22;6115;49.296;10.602;2024-02-16T05:22:13;6.40;81.00
975;DHT22;6115;49.296;10.602;2024-02-16T05:27:14;6.40;80.80
975;DHT22;6115;49.296;10.602;2024-02-16T05:32:15;6.30;80.70
975;DHT22;6115;49.296;10.602;2024-02-16T05:37:15;6.30;80.80
975;DHT22;6115;49.296;10.602;2024-02-16T05:42:16;6.30;80.60
975;DHT22;6115;49.296;10.602;2024-02-16T05:47:17;6.30;80.30
975;DHT22;6115;49.296;10.602;2024-02-16T05:52:17;6.30;80.20
975;DHT22;6115;49.296;10.602;2024-02-16T05:57:18;6.30;80.10
975;DHT22;6115;49.296;10.602;2024-02-16T06:02:18;6.20;80.00
975;DHT22;6115;49.296;10.602;2024-02-16T06:07:19;6.10;79.80
975;DHT22;6115;49.296;10.602;2024-02-16T06:12:20;6.10;79.70
975;DHT22;6115;49.296;10.602;2024-02-16T06:17:20;6.00;79.60
975;DHT22;6115;49.296;10.602;2024-02-16T06:22:21;5.90;80.10
975;DHT22;6115;49.296;10.602;2024-02-16T06:27:21;6.00;80.40
975;DHT22;6115;49.296;10.602;2024-02-16T06:32:22;6.00;80.60
975;DHT22;6115;49.296;10.602;2024-02-16T06:37:23;5.90;80.70
975;DHT22;6115;49.296;10.602;2024-02-16T06:42:23;6.00;80.80
975;DHT22;6115;49.296;10.602;2024-02-16T06:47:24;6.00;80.80
975;DHT22;6115;49.296;10.602;2024-02-16T06:52:26;6.00;80.60
975;DHT22;6115;49.296;10.602;2024-02-16T06:57:27;6.00;80.10
975;DHT22;6115;49.296;10.602;2024-02-16T07:02:27;6.00;80.00
975;DHT22;6115;49.296;10.602;2024-02-16T07:07:28;5.90;79.90
975;DHT22;6115;49.296;10.602;2024-02-16T07:12:28;5.90;80.10
975;DHT22;6115;49.296;10.602;2024-02-16T07:17:29;6.00;80.20
975;DHT22;6115;49.296;10.602;2024-02-16T07:22:31;6.00;80.80
975;DHT22;6115;49.296;10.602;2024-02-16T07:27:32;6.20;81.00
975;DHT22;6115;49.296;10.602;2024-02-16T07:32:33;6.50;81.30
975;DHT22;6115;49.296;10.602;2024-02-16T07:37:33;6.60;81.40
975;DHT22;6115;49.296;10.602;2024-02-16T07:42:37;6.80;81.60
975;DHT22;6115;49.296;10.602;2024-02-16T07:47:41;6.90;80.80
975;DHT22;6115;49.296;10.602;2024-02-16T07:52:41;6.90;81.00
975;DHT22;6115;49.296;10.602;2024-02-16T07:57:42;7.30;81.10
975;DHT22;6115;49.296;10.602;2024-02-16T08:02:43;7.40;81.10
975;DHT22;6115;49.296;10.602;2024-02-16T08:07:43;7.70;81.00
975;DHT22;6115;49.296;10.602;2024-02-16T08:12:44;8.00;80.70
975;DHT22;6115;49.296;10.602;2024-02-16T08:17:45;8.20;80.30
975;DHT22;6115;49.296;10.602;2024-02-16T08:22:45;8.50;80.00
975;DHT22;6115;49.296;10.602;2024-02-16T08:27:46;8.90;79.30
975;DHT22;6115;49.296;10.602;2024-02-16T08:32:46;9.30;79.10
975;DHT22;6115;49.296;10.602;2024-02-16T08:37:47;9.60;78.30
975;DHT22;6115;49.296;10.602;2024-02-16T08:42:47;9.80;77.30
975;DHT22;6115;49.296;10.602;2024-02-16T08:47:48;10.00;75.70
975;DHT22;6115;49.296;10.602;2024-02-16T08:52:48;10.30;74.70
975;DHT22;6115;49.296;10.602;2024-02-16T08:57:49;10.60;73.80
975;DHT22;6115;49.296;10.602;2024-02-16T09:02:50;10.70;72.50
975;DHT22;6115;49.296;10.602;2024-02-16T09:07:50;10.80;71.70
975;DHT22;6115;49.296;10.602;2024-02-16T09:12:51;10.90;70.90
975;DHT22;6115;49.296;10.602;2024-02-16T09:17:52;11.10;71.00
975;DHT22;6115;49.296;10.602;2024-02-16T09:22:53;11.30;70.00
975;DHT22;6115;49.296;10.602;2024-02-16T09:27:54;11.50;68.30
975;DHT22;6115;49.296;10.602;2024-02-16T09:32:54;11.80;67.50
975;DHT22;6115;49.296;10.602;2024-02-16T09:37:55;12.00;66.90
975;DHT22;6115;49.296;10.602;2024-02-16T09:42:56;12.20;66.40
975;DHT22;6115;49.296;10.602;2024-02-16T09:47:57;12.30;65.80
975;DHT22;6115;49.296;10.602;2024-02-16T09:52:58;12.20;64.80
975;DHT22;6115;49.296;10.602;2024-02-16T09:58:01;12.50;64.80
975;DHT22;6115;49.296;10.602;2024-02-16T10:03:01;12.80;63.80
975;DHT22;6115;49.296;10.602;2024-02-16T10:08:11;13.10;63.00
975;DHT22;6115;49.296;10.602;2024-02-16T10:13:12;13.20;62.30
975;DHT22;6115;49.296;10.602;2024-02-16T10:18:13;13.60;62.20
975;DHT22;6115;49.296;10.602;2024-02-16T10:23:14;13.90;60.40
975;DHT22;6115;49.296;10.602;2024-02-16T10:28:15;14.30;59.90
975;DHT22;6115;49.296;10.602;2024-02-16T10:33:17;14.40;58.70
975;DHT22;6115;49.296;10.602;2024-02-16T10:38:19;14.80;57.90
975;DHT22;6115;49.296;10.602;2024-02-16T10:43:20;14.90;57.70
975;DHT22;6115;49.296;10.602;2024-02-16T10:48:22;15.00;56.90
975;DHT22;6115;49.296;10.602;2024-02-16T10:53:26;15.20;56.60
975;DHT22;6115;49.296;10.602;2024-02-16T10:58:27;15.40;56.60
975;DHT22;6115;49.296;10.602;2024-02-16T11:03:32;15.50;55.50
975;DHT22;6115;49.296;10.602;2024-02-16T11:08:38;15.90;55.50
975;DHT22;6115;49.296;10.602;2024-02-16T11:13:38;16.30;55.20
975;DHT22;6115;49.296;10.602;2024-02-16T11:18:42;16.40;54.50
975;DHT22;6115;49.296;10.602;2024-02-16T11:23:45;16.90;53.70
975;DHT22;6115;49.296;10.602;2024-02-16T11:28:46;16.80;52.30
975;DHT22;6115;49.296;10.602;2024-02-16T11:33:46;17.10;52.10
975;DHT22;6115;49.296;10.602;2024-02-16T11:38:47;17.10;51.00
975;DHT22;6115;49.296;10.602;2024-02-16T11:43:49;17.20;50.80
975;DHT22;6115;49.296;10.602;2024-02-16T11:48:49;17.40;50.00
975;DHT22;6115;49.296;10.602;2024-02-16T11:53:56;17.60;49.20
975;DHT22;6115;49.296;10.602;2024-02-16T11:58:57;17.80;48.10
975;DHT22;6115;49.296;10.602;2024-02-16T12:03:58;17.70;48.50
975;DHT22;6115;49.296;10.602;2024-02-16T12:08:58;17.80;48.90
975;DHT22;6115;49.296;10.602;2024-02-16T12:13:59;17.90;48.20
975;DHT22;6115;49.296;10.602;2024-02-16T12:19:07;18.00;48.30
975;DHT22;6115;49.296;10.602;2024-02-16T12:24:08;18.00;48.30
975;DHT22;6115;49.296;10.602;2024-02-16T12:29:09;18.00;48.30
975;DHT22;6115;49.296;10.602;2024-02-16T12:34:12;18.20;46.30
975;DHT22;6115;49.296;10.602;2024-02-16T12:39:13;18.20;45.30
975;DHT22;6115;49.296;10.602;2024-02-16T12:44:16;18.90;45.20
975;DHT22;6115;49.296;10.602;2024-02-16T12:49:16;19.20;43.40
975;DHT22;6115;49.296;10.602;2024-02-16T12:54:20;18.20;42.40
975;DHT22;6115;49.296;10.602;2024-02-16T12:59:20;17.80;43.30
975;DHT22;6115;49.296;10.602;2024-02-16T13:04:21;17.40;44.50
975;DHT22;6115;49.296;10.602;2024-02-16T13:09:23;17.10;45.50
975;DHT22;6115;49.296;10.602;2024-02-16T13:14:23;17.10;45.40
975;DHT22;6115;49.296;10.602;2024-02-16T13:19:24;17.10;47.30
975;DHT22;6115;49.296;10.602;2024-02-16T13:24:24;16.80;47.30
975;DHT22;6115;49.296;10.602;2024-02-16T13:29:25;16.80;47.30
975;DHT22;6115;49.296;10.602;2024-02-16T13:34:26;16.60;48.10
975;DHT22;6115;49.296;10.602;2024-02-16T13:39:27;16.70;48.60
975;DHT22;6115;49.296;10.602;2024-02-16T13:44:27;16.80;48.10
975;DHT22;6115;49.296;10.602;2024-02-16T13:49:28;17.10;48.20
975;DHT22;6115;49.296;10.602;2024-02-16T13:54:29;17.00;47.60
975;DHT22;6115;49.296;10.602;2024-02-16T13:59:29;16.90;47.40
975;DHT22;6115;49.296;10.602;2024-02-16T14:04:31;17.00;47.10
975;DHT22;6115;49.296;10.602;2024-02-16T14:09:32;17.10;47.60
975;DHT22;6115;49.296;10.602;2024-02-16T14:14:32;17.10;46.60
975;DHT22;6115;49.296;10.602;2024-02-16T14:19:33;17.10;47.10
975;DHT22;6115;49.296;10.602;2024-02-16T14:24:38;17.00;47.50
975;DHT22;6115;49.296;10.602;2024-02-16T14:29:38;16.90;47.40
975;DHT22;6115;49.296;10.602;2024-02-16T14:34:39;16.90;48.00
975;DHT22;6115;49.296;10.602;2024-02-16T14:39:39;16.90;48.50
975;DHT22;6115;49.296;10.602;2024-02-16T14:44:40;16.60;49.20
975;DHT22;6115;49.296;10.602;2024-02-16T14:49:40;16.20;49.90
975;DHT22;6115;49.296;10.602;2024-02-16T14:54:41;15.80;51.00
975;DHT22;6115;49.296;10.602;2024-02-16T14:59:42;15.70;52.00
975;DHT22;6115;49.296;10.602;2024-02-16T15:04:43;15.80;52.10
975;DHT22;6115;49.296;10.602;2024-02-16T15:09:43;15.90;51.80
975;DHT22;6115;49.296;10.602;2024-02-16T15:14:45;15.80;52.00
975;DHT22;6115;49.296;10.602;2024-02-16T15:19:46;15.60;52.40
975;DHT22;6115;49.296;10.602;2024-02-16T15:24:47;15.70;53.20
975;DHT22;6115;49.296;10.602;2024-02-16T15:29:47;15.60;53.10
975;DHT22;6115;49.296;10.602;2024-02-16T15:34:50;15.10;54.90
975;DHT22;6115;49.296;10.602;2024-02-16T15:39:53;15.10;54.90
975;DHT22;6115;49.296;10.602;2024-02-16T15:44:57;15.10;54.90
975;DHT22;6115;49.296;10.602;2024-02-16T15:49:57;14.90;55.20
975;DHT22;6115;49.296;10.602;2024-02-16T15:54:58;14.80;55.70
975;DHT22;6115;49.296;10.602;2024-02-16T15:59:59;14.60;56.60
975;DHT22;6115;49.296;10.602;2024-02-16T16:05:00;14.70;56.80
975;DHT22;6115;49.296;10.602;2024-02-16T16:10:00;14.70;56.60
975;DHT22;6115;49.296;10.602;2024-02-16T16:15:01;14.50;57.10
975;DHT22;6115;49.296;10.602;2024-02-16T16:20:01;14.40;57.50
975;DHT22;6115;49.296;10.602;2024-02-16T16:25:04;14.20;57.90
975;DHT22;6115;49.296;10.602;2024-02-16T16:30:05;14.20;57.90
975;DHT22;6115;49.296;10.602;2024-02-16T16:35:06;14.10;58.50
975;DHT22;6115;49.296;10.602;2024-02-16T16:40:07;14.10;58.50
975;DHT22;6115;49.296;10.602;2024-02-16T16:45:09;14.00;58.30
975;DHT22;6115;49.296;10.602;2024-02-16T16:50:11;14.00;58.40
975;DHT22;6115;49.296;10.602;2024-02-16T16:55:12;14.00;58.30
975;DHT22;6115;49.296;10.602;2024-02-16T17:00:13;14.10;58.40
975;DHT22;6115;49.296;10.602;2024-02-16T17:05:13;13.90;58.90
975;DHT22;6115;49.296;10.602;2024-02-16T17:10:14;13.80;59.20
975;DHT22;6115;49.296;10.602;2024-02-16T17:15:16;13.70;59.70
975;DHT22;6115;49.296;10.602;2024-02-16T17:20:21;13.60;60.30
975;DHT22;6115;49.296;10.602;2024-02-16T17:25:24;13.60;60.60
975;DHT22;6115;49.296;10.602;2024-02-16T17:30:24;13.50;61.00
975;DHT22;6115;49.296;10.602;2024-02-16T17:35:26;13.50;61.20
975;DHT22;6115;49.296;10.602;2024-02-16T17:40:27;13.40;61.50
975;DHT22;6115;49.296;10.602;2024-02-16T17:45:27;13.30;61.80
975;DHT22;6115;49.296;10.602;2024-02-16T17:50:28;13.30;62.40
975;DHT22;6115;49.296;10.602;2024-02-16T17:55:28;13.30;62.40
975;DHT22;6115;49.296;10.602;2024-02-16T18:00:29;13.30;62.40
975;DHT22;6115;49.296;10.602;2024-02-16T18:05:30;13.20;63.10
975;DHT22;6115;49.296;10.602;2024-02-16T18:10:30;13.20;63.50
975;DHT22;6115;49.296;10.602;2024-02-16T18:15:31;13.20;63.80
975;DHT22;6115;49.296;10.602;2024-02-16T18:20:32;13.30;63.90
975;DHT22;6115;49.296;10.602;2024-02-16T18:25:33;13.20;65.00
975;DHT22;6115;49.296;10.602;2024-02-16T18:30:33;13.30;64.10
975;DHT22;6115;49.296;10.602;2024-02-16T18:35:34;13.30;64.30
975;DHT22;6115;49.296;10.602;2024-02-16T18:40:34;13.20;64.70
975;DHT22;6115;49.296;10.602;2024-02-16T18:45:35;13.20;64.90
975;DHT22;6115;49.296;10.602;2024-02-16T18:50:36;13.10;65.10
975;DHT22;6115;49.296;10.602;2024-02-16T18:55:37;13.10;65.20
975;DHT22;6115;49.296;10.602;2024-02-16T19:00:44;13.10;65.40
975;DHT22;6115;49.296;10.602;2024-02-16T19:05:45;13.10;65.70
975;DHT22;6115;49.296;10.602;2024-02-16T19:10:46;13.10;65.70
975;DHT22;6115;49.296;10.602;2024-02-16T19:15:46;13.10;66.10
975;DHT22;6115;49.296;10.602;2024-02-16T19:20:47;13.00;66.50
975;DHT22;6115;49.296;10.602;2024-02-16T19:25:50;13.10;66.80
975;DHT22;6115;49.296;10.602;2024-02-16T19:30:51;13.00;67.10
975;DHT22;6115;49.296;10.602;2024-02-16T19:35:51;13.00;67.20
975;DHT22;6115;49.296;10.602;2024-02-16T19:40:52;12.80;68.30
975;DHT22;6115;49.296;10.602;2024-02-16T19:45:53;12.60;70.20
975;DHT22;6115;49.296;10.602;2024-02-16T19:50:53;12.40;71.50
975;DHT22;6115;49.296;10.602;2024-02-16T19:55:54;12.20;74.20
975;DHT22;6115;49.296;10.602;2024-02-16T20:00:54;12.10;76.00
975;DHT22;6115;49.296;10.602;2024-02-16T20:05:55;12.00;77.40
975;DHT22;6115;49.296;10.602;2024-02-16T20:10:56;11.90;79.10
975;DHT22;6115;49.296;10.602;2024-02-16T20:15:57;11.80;80.50
975;DHT22;6115;49.296;10.602;2024-02-16T20:20:58;11.70;81.10
975;DHT22;6115;49.296;10.602;2024-02-16T20:25:58;11.60;83.00
975;DHT22;6115;49.296;10.602;2024-02-16T20:30:59;11.50;83.40
975;DHT22;6115;49.296;10.602;2024-02-16T20:36:05;11.50;84.50
975;DHT22;6115;49.296;10.602;2024-02-16T20:41:05;11.50;85.00
975;DHT22;6115;49.296;10.602;2024-02-16T20:46:06;11.40;85.50
975;DHT22;6115;49.296;10.602;2024-02-16T20:51:08;11.40;86.10
975;DHT22;6115;49.296;10.602;2024-02-16T20:56:08;11.40;86.60
975;DHT22;6115;49.296;10.602;2024-02-16T21:01:11;11.30;87.10
975;DHT22;6115;49.296;10.602;2024-02-16T21:06:11;11.30;87.60
975;DHT22;6115;49.296;10.602;2024-02-16T21:11:12;11.30;88.10
975;DHT22;6115;49.296;10.602;2024-02-16T21:16:12;11.20;88.20
975;DHT22;6115;49.296;10.602;2024-02-16T21:21:13;11.30;88.50
975;DHT22;6115;49.296;10.602;2024-02-16T21:26:14;11.20;88.80
975;DHT22;6115;49.296;10.602;2024-02-16T21:31:15;11.20;88.90
975;DHT22;6115;49.296;10.602;2024-02-16T21:36:15;11.20;89.30
975;DHT22;6115;49.296;10.602;2024-02-16T21:41:22;11.20;89.30
975;DHT22;6115;49.296;10.602;2024-02-16T21:46:27;11.20;89.30
975;DHT22;6115;49.296;10.602;2024-02-16T21:51:30;11.10;89.20
975;DHT22;6115;49.296;10.602;2024-02-16T21:56:37;11.20;89.30
975;DHT22;6115;49.296;10.602;2024-02-16T22:01:38;11.20;89.30
975;DHT22;6115;49.296;10.602;2024-02-16T22:06:39;11.20;89.30
975;DHT22;6115;49.296;10.602;2024-02-16T22:11:39;11.20;89.30
975;DHT22;6115;49.296;10.602;2024-02-16T22:16:40;11.20;89.30
975;DHT22;6115;49.296;10.602;2024-02-16T22:21:41;11.30;89.40
975;DHT22;6115;49.296;10.602;2024-02-16T22:26:44;11.30;89.40
975;DHT22;6115;49.296;10.602;2024-02-16T22:31:45;11.30;89.40
975;DHT22;6115;49.296;10.602;2024-02-16T22:36:46;11.20;89.30
975;DHT22;6115;49.296;10.602;2024-02-16T22:41:46;11.30;89.40
975;DHT22;6115;49.296;10.602;2024-02-16T22:46:47;11.30;89.40
975;DHT22;6115;49.296;10.602;2024-02-16T22:51:47;11.30;89.40
975;DHT22;6115;49.296;10.602;2024-02-16T22:56:48;11.40;89.50
975;DHT22;6115;49.296;10.602;2024-02-16T23:01:48;11.30;89.40
975;DHT22;6115;49.296;10.602;2024-02-16T23:06:49;11.30;89.40
975;DHT22;6115;49.296;10.602;2024-02-16T23:11:49;11.20;89.30
975;DHT22;6115;49.296;10.602;2024-02-16T23:16:52;11.30;89.40
975;DHT22;6115;49.296;10.602;2024-02-16T23:21:52;11.30;89.40
975;DHT22;6115;49.296;10.602;2024-02-16T23:26:53;11.30;89.40
975;DHT22;6115;49.296;10.602;2024-02-16T23:31:53;11.30;89.40
975;DHT22;6115;49.296;10.602;2024-02-16T23:36:54;11.20;89.30
975;DHT22;6115;49.296;10.602;2024-02-16T23:41:58;11.20;89.30
975;DHT22;6115;49.296;10.602;2024-02-16T23:46:59;11.20;89.30
975;DHT22;6115;49.296;10.602;2024-02-16T23:52:00;11.10;89.20
975;DHT22;6115;49.296;10.602;2024-02-16T23:57:00;11.20;89.50
